createdAt,value
2018-06-15T00:01:37.340Z,7.70
2018-06-15T00:04:06.016Z,8.10
2018-06-15T00:06:36.509Z,8.38
2018-06-15T00:09:05.219Z,7.90
2018-06-15T00:11:34.333Z,8.55
2018-06-15T00:14:03.020Z,8.23
2018-06-15T00:16:31.752Z,9.63
2018-06-15T00:19:00.469Z,8.48
2018-06-15T00:21:29.195Z,9.50
2018-06-15T00:23:58.033Z,9.13
2018-06-15T00:26:26.738Z,9.70
2018-06-15T00:28:55.558Z,9.60
2018-06-15T00:31:24.326Z,9.15
2018-06-15T00:33:53.176Z,10.45
2018-06-15T00:36:22.027Z,10.27
2018-06-15T00:38:50.983Z,10.68
2018-06-15T00:41:20.305Z,10.93
2018-06-15T00:43:49.060Z,12.53
2018-06-15T00:46:17.810Z,13.35
2018-06-15T00:48:47.266Z,12.13
2018-06-15T00:51:15.982Z,11.70
2018-06-15T00:53:44.695Z,11.68
2018-06-15T00:56:14.224Z,12.05
2018-06-15T00:58:45.049Z,14.18
2018-06-15T01:01:13.903Z,13.20
2018-06-15T01:03:42.642Z,15.32
2018-06-15T01:06:11.882Z,14.68
2018-06-15T01:08:41.389Z,13.00
2018-06-15T01:11:09.742Z,12.20
2018-06-15T01:13:39.083Z,13.43
2018-06-15T01:16:08.822Z,14.93
2018-06-15T01:18:38.092Z,13.70
2018-06-15T01:21:07.447Z,13.70
2018-06-15T01:23:37.592Z,13.65
2018-06-15T01:26:08.023Z,13.20
2018-06-15T01:28:41.829Z,14.07
2018-06-15T01:31:13.331Z,12.27
2018-06-15T01:33:43.941Z,12.35
2018-06-15T01:36:13.321Z,11.73
2018-06-15T01:38:42.035Z,11.15
2018-06-15T01:41:11.163Z,11.98
2018-06-15T01:43:42.415Z,13.40
2018-06-15T01:46:12.636Z,13.48
2018-06-15T01:48:41.679Z,13.13
2018-06-15T01:51:10.505Z,12.85
2018-06-15T01:53:39.647Z,14.05
2018-06-15T01:56:11.267Z,17.40
2018-06-15T01:58:40.966Z,14.70
2018-06-15T02:01:09.670Z,13.05
2018-06-15T02:03:38.470Z,14.55
2018-06-15T02:06:07.238Z,14.70
2018-06-15T02:08:36.025Z,15.80
2018-06-15T02:11:04.882Z,15.32
2018-06-15T02:13:33.631Z,14.00
2018-06-15T02:16:03.506Z,15.10
2018-06-15T02:18:32.582Z,16.55
2018-06-15T02:21:01.327Z,16.37
2018-06-15T02:23:30.151Z,15.25
2018-06-15T02:25:58.898Z,16.73
2018-06-15T02:28:27.681Z,18.37
2018-06-15T02:30:56.746Z,16.50
2018-06-15T02:33:25.575Z,16.75
2018-06-15T02:35:54.314Z,16.33
2018-06-15T02:38:23.075Z,16.75
2018-06-15T02:40:51.852Z,15.65
2018-06-15T02:43:20.669Z,17.52
2018-06-15T02:45:52.324Z,18.50
2018-06-15T02:48:21.109Z,18.02
2018-06-15T02:50:50.225Z,17.23
2018-06-15T02:53:19.010Z,17.62
2018-06-15T02:55:47.989Z,17.90
2018-06-15T02:58:16.749Z,19.70
2018-06-15T03:00:45.477Z,19.67
2018-06-15T03:03:14.644Z,24.43
2018-06-15T03:05:43.411Z,29.80
2018-06-15T03:08:12.373Z,27.15
2018-06-15T03:10:41.583Z,25.15
2018-06-15T03:13:10.581Z,25.65
2018-06-15T03:15:51.217Z,26.55
2018-06-15T03:18:20.011Z,30.25
2018-06-15T03:20:50.543Z,27.87
2018-06-15T03:23:19.301Z,31.02
2018-06-15T03:25:51.426Z,27.27
2018-06-15T03:28:20.085Z,27.10
2018-06-15T03:30:49.040Z,26.33
2018-06-15T03:33:17.937Z,27.05
2018-06-15T03:35:46.695Z,26.55
2018-06-15T03:38:15.432Z,25.90
2018-06-15T03:40:44.225Z,26.95
2018-06-15T03:43:12.976Z,27.95
2018-06-15T03:45:41.767Z,24.75
2018-06-15T03:48:10.861Z,27.42
2018-06-15T03:50:39.673Z,26.75
2018-06-15T03:53:08.896Z,31.62
2018-06-15T03:55:37.671Z,30.45
2018-06-15T03:58:06.575Z,31.33
2018-06-15T04:00:35.838Z,27.40
2018-06-15T04:03:05.030Z,31.90
2018-06-15T04:05:34.795Z,28.92
2018-06-15T04:08:10.482Z,26.73
2018-06-15T04:10:40.422Z,27.50
2018-06-15T04:13:09.140Z,27.55
2018-06-15T04:15:37.915Z,28.27
2018-06-15T04:18:06.977Z,28.20
2018-06-15T04:20:35.904Z,28.27
2018-06-15T04:23:05.886Z,32.67
2018-06-15T04:25:34.777Z,28.20
2018-06-15T04:28:03.550Z,29.40
2018-06-15T04:30:32.318Z,28.08
2018-06-15T04:35:49.766Z,26.75
2018-06-15T04:38:18.747Z,27.50
2018-06-15T04:40:47.851Z,27.25
2018-06-15T04:43:16.953Z,30.15
2018-06-15T04:45:46.035Z,26.02
2018-06-15T04:48:15.295Z,25.02
2018-06-15T04:50:44.507Z,23.98
2018-06-15T04:53:13.676Z,23.98
2018-06-15T04:55:42.482Z,23.62
2018-06-15T04:58:11.400Z,22.37
2018-06-15T05:00:40.151Z,23.83
2018-06-15T05:03:09.263Z,19.12
2018-06-15T05:05:38.177Z,17.87
2018-06-15T05:08:06.950Z,17.10
2018-06-15T05:10:36.486Z,18.50
2018-06-15T05:13:05.521Z,19.77
2018-06-15T05:15:34.301Z,18.08
2018-06-15T05:18:03.779Z,17.85
2018-06-15T05:20:32.972Z,15.40
2018-06-15T05:23:07.913Z,16.55
2018-06-15T05:25:38.090Z,16.70
2018-06-15T05:28:18.239Z,17.12
2018-06-15T05:30:46.261Z,15.30
2018-06-15T05:33:25.179Z,16.30
2018-06-15T05:35:53.948Z,14.95
2018-06-15T05:38:24.762Z,14.93
2018-06-15T05:40:53.543Z,15.18
2018-06-15T05:43:22.473Z,15.93
2018-06-15T05:45:53.518Z,16.42
2018-06-15T05:48:22.295Z,18.17
2018-06-15T05:50:53.191Z,15.05
2018-06-15T05:53:21.903Z,14.50
2018-06-15T05:55:50.966Z,15.38
2018-06-15T05:58:19.748Z,16.08
2018-06-15T06:00:48.608Z,17.70
2018-06-15T06:03:17.690Z,15.05
2018-06-15T06:05:47.443Z,16.05
2018-06-15T06:08:16.480Z,14.30
2018-06-15T06:10:46.528Z,14.73
2018-06-15T06:13:15.403Z,15.40
2018-06-15T06:15:44.473Z,14.55
2018-06-15T06:18:15.511Z,14.95
2018-06-15T06:20:44.500Z,14.90
2018-06-15T06:23:14.844Z,13.93
2018-06-15T06:25:43.622Z,15.32
2018-06-15T06:28:12.421Z,15.00
2018-06-15T06:30:42.297Z,14.85
2018-06-15T06:33:11.372Z,14.73
2018-06-15T06:35:40.341Z,14.65
2018-06-15T06:38:09.747Z,13.82
2018-06-15T06:40:38.499Z,13.82
2018-06-15T06:43:07.611Z,14.65
2018-06-15T06:45:36.435Z,14.10
2018-06-15T06:48:05.173Z,15.05
2018-06-15T06:50:33.850Z,16.27
2018-06-15T06:53:02.562Z,14.02
2018-06-15T06:55:31.256Z,14.80
2018-06-15T06:58:00.396Z,13.18
2018-06-15T07:00:32.363Z,14.07
2018-06-15T07:03:01.640Z,15.70
2018-06-15T07:05:30.959Z,16.10
2018-06-15T07:07:59.854Z,15.02
2018-06-15T07:10:41.023Z,14.27
2018-06-15T07:13:09.785Z,15.13
2018-06-15T07:15:38.691Z,13.23
2018-06-15T07:18:07.404Z,13.60
2018-06-15T07:20:37.207Z,12.95
2018-06-15T07:23:05.829Z,13.30
2018-06-15T07:25:35.057Z,13.00
2018-06-15T07:28:04.045Z,12.13
2018-06-15T07:30:33.266Z,12.37
2018-06-15T07:33:04.760Z,11.02
2018-06-15T07:35:34.889Z,11.85
2018-06-15T07:38:03.783Z,12.30
2018-06-15T07:40:32.585Z,12.20
2018-06-15T07:43:01.296Z,10.23
2018-06-15T07:45:30.248Z,11.50
2018-06-15T07:47:59.272Z,12.07
2018-06-15T07:50:29.426Z,11.12
2018-06-15T07:52:58.276Z,12.23
2018-06-15T07:55:27.740Z,12.23
2018-06-15T07:57:58.018Z,13.30
2018-06-15T08:00:27.162Z,13.88
2018-06-15T08:03:00.255Z,12.75
2018-06-15T08:05:32.140Z,12.35
2018-06-15T08:08:01.042Z,11.98
2018-06-15T08:10:30.460Z,12.43
2018-06-15T08:12:59.339Z,12.73
2018-06-15T08:15:28.865Z,12.43
2018-06-15T08:18:02.163Z,11.68
2018-06-15T08:20:31.597Z,11.32
2018-06-15T08:23:01.008Z,16.00
2018-06-15T08:25:30.499Z,11.57
2018-06-15T08:27:59.485Z,14.77
2018-06-15T08:30:28.224Z,13.98
2018-06-15T08:32:56.946Z,12.52
2018-06-15T08:35:26.024Z,11.95
2018-06-15T08:37:54.902Z,11.57
2018-06-15T08:40:23.557Z,19.65
2018-06-15T08:42:52.324Z,45.22
2018-06-15T08:45:30.088Z,17.15
2018-06-15T08:48:01.788Z,12.10
2018-06-15T08:50:30.818Z,46.67
2018-06-15T08:53:01.320Z,13.93
2018-06-15T08:55:30.123Z,12.48
2018-06-15T08:57:59.045Z,12.63
2018-06-15T09:00:28.033Z,12.60
2018-06-15T09:03:00.705Z,12.82
2018-06-15T09:05:31.059Z,11.55
2018-06-15T09:08:01.735Z,12.95
2018-06-15T09:10:31.594Z,13.27
2018-06-15T09:13:00.645Z,11.38
2018-06-15T09:15:29.373Z,11.88
2018-06-15T09:17:59.814Z,11.43
2018-06-15T09:20:28.799Z,12.82
2018-06-15T09:22:58.206Z,11.82
2018-06-15T09:25:27.746Z,12.50
2018-06-15T09:28:02.348Z,12.45
2018-06-15T09:30:32.295Z,10.93
2018-06-15T09:33:01.019Z,10.30
2018-06-15T09:35:29.820Z,11.48
2018-06-15T09:37:58.847Z,10.75
2018-06-15T09:40:27.797Z,10.20
2018-06-15T09:42:56.947Z,9.40
2018-06-15T09:45:25.840Z,10.25
2018-06-15T09:47:55.124Z,10.83
2018-06-15T09:50:23.922Z,9.70
2018-06-15T09:52:53.028Z,10.43
2018-06-15T09:58:09.416Z,7.65
2018-06-15T10:00:38.314Z,6.55
2018-06-15T10:03:07.730Z,7.03
2018-06-15T10:05:36.636Z,5.47
2018-06-15T10:08:05.786Z,5.30
2018-06-15T10:10:34.859Z,6.18
2018-06-15T10:13:03.930Z,5.87
2018-06-15T10:15:32.736Z,6.30
2018-06-15T10:18:02.071Z,7.03
2018-06-15T10:20:30.784Z,7.68
2018-06-15T10:22:59.922Z,7.28
2018-06-15T10:25:28.768Z,7.53
2018-06-15T10:27:57.486Z,7.90
2018-06-15T10:30:26.185Z,7.20
2018-06-15T10:32:54.921Z,7.10
2018-06-15T10:35:23.941Z,7.65
2018-06-15T10:37:53.080Z,6.68
2018-06-15T10:40:21.793Z,6.78
2018-06-15T10:42:50.633Z,8.00
2018-06-15T10:45:19.687Z,7.68
2018-06-15T10:47:51.662Z,7.47
2018-06-15T10:50:20.682Z,7.30
2018-06-15T10:52:49.532Z,7.57
2018-06-15T10:55:18.221Z,6.93
2018-06-15T10:57:47.004Z,7.45
2018-06-15T11:00:16.251Z,7.80
2018-06-15T11:02:45.359Z,6.43
2018-06-15T11:05:14.227Z,7.70
2018-06-15T11:07:42.986Z,6.80
2018-06-15T11:10:12.237Z,7.22
2018-06-15T11:12:41.169Z,6.93
2018-06-15T11:15:10.025Z,7.25
2018-06-15T11:17:38.739Z,7.32
2018-06-15T11:20:07.438Z,7.37
2018-06-15T11:22:36.506Z,9.52
2018-06-15T11:25:05.131Z,9.13
2018-06-15T11:27:33.979Z,8.53
2018-06-15T11:30:02.736Z,7.32
2018-06-15T11:32:31.510Z,7.85
2018-06-15T11:35:00.236Z,7.12
2018-06-15T11:37:28.936Z,7.72
2018-06-15T11:39:57.654Z,7.72
2018-06-15T11:42:27.916Z,7.50
2018-06-15T11:44:56.665Z,8.13
2018-06-15T11:47:25.302Z,8.18
2018-06-15T11:49:54.043Z,7.90
2018-06-15T11:52:23.334Z,7.50
2018-06-15T11:54:52.121Z,6.87
2018-06-15T11:57:20.758Z,8.02
2018-06-15T11:59:49.487Z,7.18
2018-06-15T12:02:18.296Z,7.47
2018-06-15T12:04:48.561Z,7.25
2018-06-15T12:07:17.307Z,7.20
2018-06-15T12:09:46.011Z,8.38
2018-06-15T12:12:14.749Z,7.65
2018-06-15T12:14:43.499Z,8.15
2018-06-15T12:17:12.172Z,8.77
2018-06-15T12:19:41.040Z,9.60
2018-06-15T12:22:09.964Z,8.63
2018-06-15T12:24:38.832Z,7.87
2018-06-15T12:27:08.103Z,8.32
2018-06-15T12:29:37.793Z,8.95
2018-06-15T12:32:08.343Z,7.97
2018-06-15T12:34:35.650Z,8.75
2018-06-15T12:37:04.437Z,8.68
2018-06-15T12:39:33.163Z,9.30
2018-06-15T12:42:01.865Z,7.62
2018-06-15T12:44:30.627Z,9.75
2018-06-15T12:46:59.343Z,8.55
2018-06-15T12:49:28.043Z,8.02
2018-06-15T12:51:56.740Z,7.53
2018-06-15T12:54:25.563Z,8.40
2018-06-15T12:56:54.266Z,7.47
2018-06-15T12:59:22.977Z,7.90
2018-06-15T13:01:51.776Z,7.68
2018-06-15T13:04:20.517Z,7.20
2018-06-15T13:06:52.368Z,6.72
2018-06-15T13:09:21.175Z,6.87
2018-06-15T13:11:49.910Z,6.80
2018-06-15T13:14:18.603Z,7.37
2018-06-15T13:16:47.467Z,6.37
2018-06-15T13:19:16.241Z,6.78
2018-06-15T13:21:44.979Z,7.07
2018-06-15T13:24:13.657Z,8.20
2018-06-15T13:26:42.359Z,8.60
2018-06-15T13:29:11.129Z,7.93
2018-06-15T13:31:39.854Z,7.40
2018-06-15T13:34:08.593Z,8.23
2018-06-15T13:36:40.280Z,8.20
2018-06-15T13:39:09.127Z,6.80
2018-06-15T13:41:38.001Z,7.15
2018-06-15T13:44:06.747Z,8.10
2018-06-15T13:46:35.519Z,9.20
2018-06-15T13:49:04.206Z,8.50
2018-06-15T13:51:32.939Z,8.60
2018-06-15T13:54:04.914Z,10.13
2018-06-15T13:56:33.618Z,8.90
2018-06-15T13:59:02.354Z,9.10
2018-06-15T14:01:33.728Z,9.32
2018-06-15T14:04:02.464Z,8.88
2018-06-15T14:06:32.121Z,9.32
2018-06-15T14:09:01.062Z,8.98
2018-06-15T14:11:30.063Z,9.02
2018-06-15T14:16:46.269Z,8.73
2018-06-15T14:19:15.575Z,8.88
2018-06-15T14:21:44.291Z,8.40
2018-06-15T14:24:15.593Z,9.13
2018-06-15T14:26:44.666Z,8.73
2018-06-15T14:29:13.516Z,9.80
2018-06-15T14:31:42.212Z,8.50
2018-06-15T14:34:10.919Z,8.68
2018-06-15T14:36:39.607Z,8.90
2018-06-15T14:39:08.333Z,8.57
2018-06-15T14:41:37.097Z,8.52
2018-06-15T14:44:05.996Z,9.10
2018-06-15T14:46:34.735Z,8.68
2018-06-15T14:49:04.073Z,9.13
2018-06-15T14:51:32.847Z,7.82
2018-06-15T14:54:02.148Z,7.72
2018-06-15T14:56:30.909Z,7.70
2018-06-15T14:58:59.716Z,7.68
2018-06-15T15:01:28.358Z,7.40
2018-06-15T15:03:57.440Z,8.65
2018-06-15T15:06:26.597Z,7.03
2018-06-15T15:08:55.537Z,7.82
2018-06-15T15:11:24.494Z,6.70
2018-06-15T15:13:53.325Z,7.12
2018-06-15T15:19:09.700Z,7.17
2018-06-15T15:21:38.408Z,6.77
2018-06-15T15:24:07.074Z,6.25
2018-06-15T15:26:36.212Z,5.72
2018-06-15T15:29:05.435Z,4.57
2018-06-15T15:31:34.423Z,4.82
2018-06-15T15:34:03.814Z,4.80
2018-06-15T15:36:36.037Z,4.55
2018-06-15T15:39:06.798Z,4.82
2018-06-15T15:44:30.133Z,5.32
2018-06-15T15:47:00.928Z,4.12
2018-06-15T15:49:30.068Z,5.27
2018-06-15T15:54:46.434Z,4.53
2018-06-15T15:57:17.895Z,3.92
2018-06-15T15:59:46.655Z,4.45
2018-06-15T16:02:15.741Z,4.50
2018-06-15T16:04:44.396Z,4.20
2018-06-15T16:07:13.334Z,4.50
2018-06-15T16:09:42.246Z,4.90
2018-06-15T16:12:10.988Z,4.53
2018-06-15T16:14:39.779Z,4.12
2018-06-15T16:17:12.157Z,4.25
2018-06-15T16:19:43.034Z,4.47
2018-06-15T16:22:11.882Z,4.68
2018-06-15T16:24:40.761Z,4.10
2018-06-15T16:27:11.430Z,4.32
2018-06-15T16:29:41.305Z,5.20
2018-06-15T16:37:49.389Z,4.28
2018-06-15T16:40:21.689Z,4.68
2018-06-15T16:42:51.476Z,4.47
2018-06-15T16:45:20.757Z,4.00
2018-06-15T16:47:50.075Z,4.12
2018-06-15T16:53:08.324Z,3.60
2018-06-15T16:55:38.363Z,4.30
2018-06-15T16:58:07.835Z,4.18
2018-06-15T17:06:13.675Z,3.92
2018-06-15T17:08:43.166Z,3.90
2018-06-15T17:11:12.962Z,3.80
2018-06-15T17:13:41.830Z,3.95
2018-06-15T17:16:15.638Z,3.65
2018-06-15T17:18:48.018Z,4.05
2018-06-15T17:21:19.561Z,4.10
2018-06-15T17:23:50.894Z,3.58
2018-06-15T17:31:51.885Z,3.97
2018-06-15T17:39:50.491Z,4.50
2018-06-15T17:42:20.119Z,3.95
2018-06-15T17:44:50.532Z,4.37
2018-06-15T17:47:20.072Z,4.05
2018-06-15T17:49:54.668Z,4.95
2018-06-15T17:52:23.884Z,4.47
2018-06-15T17:54:52.831Z,4.32
2018-06-15T17:57:23.055Z,4.65
2018-06-15T17:59:55.264Z,4.03
2018-06-15T18:02:27.024Z,4.43
2018-06-15T18:04:58.698Z,5.22
2018-06-15T18:07:30.350Z,4.80
2018-06-15T18:10:04.435Z,4.87
2018-06-15T18:12:33.592Z,5.03
2018-06-15T18:15:02.580Z,4.80
2018-06-15T18:17:31.972Z,5.37
2018-06-15T18:20:01.493Z,5.53
2018-06-15T18:22:30.349Z,5.20
2018-06-15T18:25:02.164Z,4.87
2018-06-15T18:27:32.189Z,5.05
2018-06-15T18:30:01.602Z,5.25
2018-06-15T18:32:31.115Z,4.75
2018-06-15T18:35:06.735Z,5.00
2018-06-15T18:37:35.846Z,4.93
2018-06-15T18:40:06.068Z,5.10
2018-06-15T18:42:35.461Z,4.22
2018-06-15T18:45:09.288Z,4.28
2018-06-15T18:47:44.635Z,4.80
2018-06-15T18:50:20.140Z,4.45
2018-06-15T18:52:53.836Z,4.10
2018-06-15T18:55:25.309Z,4.15
2018-06-15T18:57:58.016Z,4.62
2018-06-15T19:00:30.813Z,4.47
2018-06-15T19:03:02.253Z,4.53
2018-06-15T19:05:32.373Z,4.12
2018-06-15T19:08:01.770Z,4.50
2018-06-15T19:10:31.355Z,4.90
2018-06-15T19:13:00.992Z,4.82
2018-06-15T19:15:31.491Z,3.67
2018-06-15T19:18:00.659Z,3.97
2018-06-15T19:20:33.745Z,4.22
2018-06-15T19:23:03.280Z,4.25
2018-06-15T19:25:33.610Z,4.57
2018-06-15T19:28:05.167Z,4.85
2018-06-15T19:30:34.232Z,4.93
2018-06-15T19:33:03.925Z,5.30
2018-06-15T19:35:32.968Z,4.53
2018-06-15T19:38:03.398Z,3.80
2018-06-15T19:40:32.487Z,4.40
2018-06-15T19:43:01.603Z,4.62
2018-06-15T19:45:33.078Z,4.70
2018-06-15T19:48:03.185Z,4.72
2018-06-15T19:50:34.920Z,4.75
2018-06-15T19:53:03.960Z,4.62
2018-06-15T19:55:35.612Z,4.50
2018-06-15T19:58:05.864Z,4.80
2018-06-15T20:00:39.241Z,4.70
2018-06-15T20:03:08.976Z,4.43
2018-06-15T20:05:38.522Z,4.30
2018-06-15T20:08:09.289Z,4.18
2018-06-15T20:10:38.629Z,5.05
2018-06-15T20:13:07.805Z,4.87
2018-06-15T20:15:37.482Z,4.80
2018-06-15T20:18:07.998Z,4.87
2018-06-15T20:20:38.549Z,5.18
2018-06-15T20:23:08.157Z,4.65
2018-06-15T20:25:55.004Z,4.75
2018-06-15T20:28:25.255Z,4.97
2018-06-15T20:30:59.467Z,4.78
2018-06-15T20:33:30.568Z,5.03
2018-06-15T20:36:00.268Z,5.85
2018-06-15T20:38:33.694Z,7.00
2018-06-15T20:41:06.520Z,6.53
2018-06-15T20:43:35.792Z,5.80
2018-06-15T20:46:06.337Z,6.00
2018-06-15T20:51:25.083Z,5.85
2018-06-15T20:53:56.602Z,5.95
2018-06-15T20:56:26.185Z,5.78
2018-06-15T20:58:55.760Z,6.18
2018-06-15T21:01:27.086Z,6.62
2018-06-15T21:04:07.729Z,5.57
2018-06-15T21:06:43.252Z,6.25
2018-06-15T21:09:10.475Z,5.15
2018-06-15T21:11:41.467Z,6.10
2018-06-15T21:14:10.705Z,6.53
2018-06-15T21:16:42.645Z,5.50
2018-06-15T21:19:14.466Z,6.93
2018-06-15T21:21:43.708Z,6.57
2018-06-15T21:24:13.147Z,6.93
2018-06-15T21:26:42.018Z,6.12
2018-06-15T21:29:19.376Z,6.62
2018-06-15T21:31:48.128Z,5.53
2018-06-15T21:34:18.061Z,6.37
2018-06-15T21:36:51.761Z,7.85
2018-06-15T21:39:21.113Z,7.30
2018-06-15T21:41:49.965Z,6.90
2018-06-15T21:44:18.648Z,6.25
2018-06-15T21:46:47.451Z,7.05
2018-06-15T21:49:16.181Z,7.12
2018-06-15T21:51:48.392Z,7.32
2018-06-15T21:54:19.500Z,8.63
2018-06-15T21:56:53.373Z,8.15
2018-06-15T21:59:23.814Z,8.27
2018-06-15T22:01:55.479Z,6.70
2018-06-15T22:04:24.404Z,6.72
2018-06-15T22:06:53.275Z,7.65
2018-06-15T22:09:22.126Z,7.12
2018-06-15T22:11:50.994Z,7.00
2018-06-15T22:14:19.707Z,6.32
2018-06-15T22:16:48.605Z,6.87
2018-06-15T22:19:17.401Z,7.25
2018-06-15T22:21:46.230Z,6.35
2018-06-15T22:24:20.151Z,7.50
2018-06-15T22:26:50.955Z,6.90
2018-06-15T22:29:31.277Z,6.60
2018-06-15T22:32:00.081Z,7.12
2018-06-15T22:34:28.824Z,6.78
2018-06-15T22:36:57.768Z,7.95
2018-06-15T22:39:26.535Z,7.90
2018-06-15T22:41:55.417Z,9.02
2018-06-15T22:44:24.260Z,8.50
2018-06-15T22:46:53.030Z,9.02
2018-06-15T22:49:21.766Z,10.45
2018-06-15T22:51:50.513Z,11.77
2018-06-15T22:54:19.571Z,11.73
2018-06-15T22:56:48.481Z,13.40
2018-06-15T22:59:17.328Z,14.63
2018-06-15T23:01:46.126Z,15.77
2018-06-15T23:04:14.993Z,13.93
2018-06-15T23:06:43.778Z,14.55
2018-06-15T23:09:12.869Z,13.02
2018-06-15T23:11:41.682Z,13.25
2018-06-15T23:14:10.478Z,13.25
2018-06-15T23:16:39.338Z,16.85
2018-06-15T23:19:08.110Z,14.52
2018-06-15T23:21:36.848Z,15.13
2018-06-15T23:24:05.900Z,15.25
2018-06-15T23:26:34.662Z,15.52
2018-06-15T23:29:03.390Z,14.63
2018-06-15T23:31:32.382Z,14.75
2018-06-15T23:34:01.181Z,15.95
2018-06-15T23:36:30.198Z,16.80
2018-06-15T23:38:59.353Z,15.15
2018-06-15T23:41:28.552Z,16.00
2018-06-15T23:43:57.797Z,16.73
2018-06-15T23:46:27.170Z,15.32
2018-06-15T23:48:56.340Z,15.85
2018-06-15T23:51:25.654Z,17.25
2018-06-15T23:53:55.218Z,15.05
2018-06-15T23:56:24.120Z,15.98
2018-06-15T23:58:53.092Z,15.38
